Time;durP1;ratioP1;P1;durP2;ratioP2;P2;SDS_P1;SDS_P2;PMS_P1;PMS_P2;Temp;Humidity;BMP_temperature;BMP_pressure;BME280_temperature;BME280_humidity;BME280_pressure;Samples;Min_cycle;Max_cycle;Signal;HPM_P1;HPM_P2
2023/08/17 00:00:30;;;;;;;5.70;3.50;;;19.90;95.70;;;;;;4944878;28;95118;-77
2023/08/17 00:02:55;;;;;;;5.35;3.05;;;19.80;95.90;;;;;;4967710;28;92477;-76
2023/08/17 00:05:21;;;;;;;5.70;3.05;;;19.80;95.80;;;;;;4947373;28;93259;-76
2023/08/17 00:07:47;;;;;;;7.07;3.20;;;19.80;95.80;;;;;;4967335;28;93207;-76
2023/08/17 00:10:12;;;;;;;7.30;3.13;;;19.80;95.90;;;;;;4965834;28;93459;-76
2023/08/17 00:12:38;;;;;;;7.15;3.40;;;19.90;95.90;;;;;;4966745;28;92933;-76
2023/08/17 00:15:04;;;;;;;3.60;2.83;;;19.90;95.90;;;;;;4949085;28;92873;-76
2023/08/17 00:17:30;;;;;;;5.97;3.53;;;19.90;95.80;;;;;;4962119;28;94423;-76
2023/08/17 00:19:56;;;;;;;9.45;3.72;;;19.90;95.90;;;;;;4946902;28;97548;-77
2023/08/17 00:22:21;;;;;;;5.97;3.60;;;19.90;95.90;;;;;;4965679;28;92477;-76
2023/08/17 00:24:47;;;;;;;4.90;3.70;;;19.90;96.10;;;;;;4965008;28;92779;-76
2023/08/17 00:27:12;;;;;;;5.32;3.30;;;19.90;96.00;;;;;;4964677;28;92927;-77
2023/08/17 00:29:38;;;;;;;5.55;3.85;;;20.00;96.00;;;;;;4964464;28;93833;-77
2023/08/17 00:32:04;;;;;;;8.63;3.45;;;20.00;96.10;;;;;;4963024;28;92888;-76
2023/08/17 00:34:30;;;;;;;9.63;3.83;;;20.00;96.10;;;;;;4946625;28;91984;-76
2023/08/17 00:36:55;;;;;;;7.78;3.60;;;20.00;95.90;;;;;;4964566;28;93183;-76
2023/08/17 00:39:21;;;;;;;6.57;3.05;;;19.90;95.80;;;;;;4946119;28;96328;-77
2023/08/17 00:41:47;;;;;;;6.13;3.55;;;20.00;95.90;;;;;;4964283;28;94395;-76
2023/08/17 00:44:12;;;;;;;5.10;3.38;;;20.00;96.00;;;;;;4963891;28;92941;-76
2023/08/17 00:46:39;;;;;;;7.78;4.13;;;19.90;96.00;;;;;;4964274;28;93716;-76
2023/08/17 00:49:06;;;;;;;9.45;3.67;;;20.00;95.90;;;;;;4964851;28;93390;-76
2023/08/17 00:51:33;;;;;;;9.98;3.83;;;20.00;95.70;;;;;;4971962;28;92550;-77
2023/08/17 00:54:00;;;;;;;9.25;3.78;;;19.90;95.80;;;;;;4964238;28;92745;-76
2023/08/17 00:56:27;;;;;;;8.18;3.92;;;19.90;95.50;;;;;;4946850;28;95219;-76
2023/08/17 00:58:53;;;;;;;6.38;3.30;;;19.90;95.40;;;;;;4964224;28;93418;-76
2023/08/17 01:01:20;;;;;;;6.85;3.35;;;19.80;95.50;;;;;;4946325;28;92712;-76
2023/08/17 01:03:46;;;;;;;4.90;3.50;;;19.80;95.50;;;;;;4963592;28;92213;-76
2023/08/17 01:06:12;;;;;;;7.15;3.50;;;19.80;95.50;;;;;;4963878;28;95012;-76
2023/08/17 01:08:38;;;;;;;4.65;3.40;;;19.80;95.60;;;;;;4964369;28;94778;-76
2023/08/17 01:11:35;;;;;;;6.50;3.42;;;19.80;95.40;;;;;;4963141;28;93239;-76
2023/08/17 01:14:19;;;;;;;10.73;3.35;;;19.80;95.40;;;;;;4963983;28;92853;-76
2023/08/17 01:16:50;;;;;;;;;;;19.80;95.40;;;;;;4964776;28;93171;-76
2023/08/17 01:19:26;;;;;;;12.57;4.15;;;19.80;95.20;;;;;;4962935;28;96974;-76
2023/08/17 01:21:58;;;;;;;11.05;3.45;;;19.80;95.30;;;;;;4963674;28;92515;-76
2023/08/17 01:24:24;;;;;;;7.63;3.13;;;19.80;95.20;;;;;;4964085;28;91914;-76
2023/08/17 01:26:51;;;;;;;6.28;3.13;;;19.80;95.00;;;;;;4947233;28;94464;-76
2023/08/17 01:29:16;;;;;;;7.32;3.25;;;19.70;94.90;;;;;;4962723;28;93670;-76
2023/08/17 01:31:56;;;;;;;7.43;2.83;;;19.70;94.80;;;;;;4944031;28;93651;-76
2023/08/17 01:34:25;;;;;;;5.95;3.05;;;19.70;94.90;;;;;;4964244;28;93008;-76
2023/08/17 01:36:54;;;;;;;5.30;2.92;;;19.70;95.00;;;;;;4964128;28;93004;-76
2023/08/17 01:39:23;;;;;;;6.40;2.90;;;19.70;95.00;;;;;;4946684;28;96473;-76
2023/08/17 01:41:51;;;;;;;5.55;2.60;;;19.70;94.90;;;;;;4964433;28;92786;-76
2023/08/17 01:44:16;;;;;;;7.28;3.15;;;19.70;94.90;;;;;;4964207;28;92634;-76
2023/08/17 01:46:42;;;;;;;5.63;2.70;;;19.70;94.90;;;;;;4963085;28;94278;-76
2023/08/17 01:49:08;;;;;;;4.70;2.60;;;19.70;95.10;;;;;;4946676;28;94913;-76
2023/08/17 01:51:33;;;;;;;7.53;2.95;;;19.70;94.80;;;;;;4963186;28;92708;-76
2023/08/17 01:53:59;;;;;;;5.38;2.92;;;19.70;94.60;;;;;;4965566;28;92905;-76
2023/08/17 01:56:24;;;;;;;8.27;3.38;;;19.70;94.60;;;;;;4963640;28;94503;-76
2023/08/17 01:58:50;;;;;;;10.48;3.35;;;19.70;94.70;;;;;;4963753;28;94646;-75
2023/08/17 02:01:16;;;;;;;5.20;2.50;;;19.60;94.70;;;;;;4962831;28;92449;-76
2023/08/17 02:03:41;;;;;;;4.72;2.40;;;19.60;94.70;;;;;;4962301;28;92847;-76
2023/08/17 02:06:07;;;;;;;3.83;2.92;;;19.60;95.00;;;;;;4962855;28;93623;-76
2023/08/17 02:08:34;;;;;;;5.78;2.50;;;19.50;95.00;;;;;;4963658;28;93493;-76
2023/08/17 02:11:00;;;;;;;5.35;2.63;;;19.50;95.00;;;;;;4962022;28;92751;-76
2023/08/17 02:13:27;;;;;;;4.15;2.85;;;19.50;95.30;;;;;;4963246;28;92156;-77
2023/08/17 02:15:52;;;;;;;7.93;3.67;;;19.50;95.20;;;;;;4945500;28;96695;-76
2023/08/17 02:18:18;;;;;;;3.70;2.25;;;19.50;95.20;;;;;;4944280;28;95240;-76
2023/08/17 02:20:44;;;;;;;6.20;2.88;;;19.50;95.20;;;;;;4963503;28;93372;-76
2023/08/17 02:23:09;;;;;;;5.55;3.25;;;19.50;95.10;;;;;;4945163;28;92376;-76
2023/08/17 02:25:40;;;;;;;3.45;2.70;;;19.60;95.20;;;;;;4963028;28;93694;-76
2023/08/17 02:28:06;;;;;;;5.60;2.30;;;19.60;95.30;;;;;;4961882;28;93942;-76
2023/08/17 02:30:32;;;;;;;8.50;2.70;;;19.60;95.20;;;;;;4963433;28;92490;-76
2023/08/17 02:32:57;;;;;;;5.53;3.03;;;19.60;95.30;;;;;;4964690;28;92586;-76
2023/08/17 02:35:23;;;;;;;4.30;2.63;;;19.60;95.20;;;;;;4963600;28;93233;-76
2023/08/17 02:37:48;;;;;;;5.18;2.67;;;19.60;95.30;;;;;;4962440;28;93896;-76
2023/08/17 02:40:14;;;;;;;8.75;2.78;;;19.60;95.30;;;;;;4963047;28;92782;-76
2023/08/17 02:42:40;;;;;;;3.78;2.08;;;19.60;95.30;;;;;;4962716;28;92618;-76
2023/08/17 02:45:09;;;;;;;4.90;2.70;;;19.60;95.40;;;;;;4945808;28;97702;-76
2023/08/17 02:47:35;;;;;;;5.85;2.50;;;19.60;95.50;;;;;;4962790;28;100706;-75
2023/08/17 02:50:00;;;;;;;5.47;2.78;;;19.60;95.40;;;;;;4962719;28;92487;-76
2023/08/17 02:52:26;;;;;;;5.05;2.50;;;19.60;95.30;;;;;;4963624;28;92863;-76
2023/08/17 02:54:51;;;;;;;5.80;2.58;;;19.50;95.50;;;;;;4963801;28;93752;-76
2023/08/17 02:57:18;;;;;;;9.90;2.97;;;19.50;95.60;;;;;;4945206;28;96561;-76
2023/08/17 02:59:44;;;;;;;8.20;3.45;;;19.50;95.50;;;;;;4964719;28;93140;-76
2023/08/17 03:02:09;;;;;;;7.53;3.05;;;19.50;95.70;;;;;;4962828;28;91874;-76
2023/08/17 03:04:35;;;;;;;4.95;2.95;;;19.50;95.70;;;;;;4961666;28;93176;-76
2023/08/17 03:07:01;;;;;;;8.60;3.45;;;19.50;95.70;;;;;;4944811;28;96167;-76
2023/08/17 03:09:26;;;;;;;6.68;3.42;;;19.50;96.00;;;;;;4964349;28;93889;-76
2023/08/17 03:11:52;;;;;;;5.88;3.50;;;19.50;95.90;;;;;;4963040;28;92812;-76
2023/08/17 03:14:18;;;;;;;6.82;3.55;;;19.50;96.10;;;;;;4962322;28;93088;-76
2023/08/17 03:16:43;;;;;;;5.90;3.97;;;19.50;96.00;;;;;;4962425;28;93225;-75
2023/08/17 03:19:11;;;;;;;5.25;3.28;;;19.50;96.00;;;;;;4966351;28;93657;-76
2023/08/17 03:21:37;;;;;;;7.35;3.40;;;19.40;96.00;;;;;;4965531;28;92613;-76
2023/08/17 03:24:03;;;;;;;9.63;3.70;;;19.40;96.10;;;;;;4967722;28;93122;-75
2023/08/17 03:26:29;;;;;;;8.05;4.00;;;19.50;96.10;;;;;;4965606;28;94959;-76
2023/08/17 03:28:54;;;;;;;10.65;3.85;;;19.50;96.10;;;;;;4948123;28;92870;-76
2023/08/17 03:31:23;;;;;;;6.85;3.30;;;19.50;96.20;;;;;;4965494;28;92827;-75
2023/08/17 03:33:49;;;;;;;4.68;3.25;;;19.50;96.00;;;;;;4965156;28;95068;-75
2023/08/17 03:36:15;;;;;;;7.35;3.63;;;19.50;96.10;;;;;;4965472;28;94162;-75
2023/08/17 03:38:41;;;;;;;10.75;5.00;;;19.50;96.10;;;;;;4950242;28;92513;-75
2023/08/17 03:41:07;;;;;;;7.95;4.78;;;19.50;96.20;;;;;;4967477;28;92647;-75
2023/08/17 03:43:33;;;;;;;10.50;5.65;;;19.50;96.10;;;;;;4947105;28;96479;-76
2023/08/17 03:45:58;;;;;;;10.15;5.95;;;19.50;96.20;;;;;;4966015;28;93276;-75
2023/08/17 03:48:24;;;;;;;9.45;6.03;;;19.40;96.20;;;;;;4965227;28;92850;-75
2023/08/17 03:50:54;;;;;;;13.27;7.25;;;19.40;96.20;;;;;;4966051;28;92129;-75
2023/08/17 03:53:20;;;;;;;10.05;5.78;;;19.40;96.30;;;;;;4965631;28;93284;-75
2023/08/17 03:55:49;;;;;;;8.75;5.97;;;19.30;96.30;;;;;;4963275;28;93785;-76
2023/08/17 03:58:16;;;;;;;9.88;5.75;;;19.40;96.50;;;;;;4948373;28;93479;-76
2023/08/17 04:00:42;;;;;;;11.13;5.85;;;19.40;96.40;;;;;;4965300;28;92723;-76
2023/08/17 04:03:08;;;;;;;11.20;6.13;;;19.40;96.40;;;;;;4965559;28;93584;-76
2023/08/17 04:05:33;;;;;;;8.68;5.93;;;19.40;96.40;;;;;;4964348;28;96231;-76
2023/08/17 04:08:03;;;;;;;8.05;5.80;;;19.50;96.50;;;;;;4965251;28;92669;-75
2023/08/17 04:10:29;;;;;;;11.35;5.97;;;19.50;96.40;;;;;;4963227;28;92270;-76
2023/08/17 04:12:56;;;;;;;7.68;5.93;;;19.50;96.30;;;;;;4963560;28;93707;-76
2023/08/17 04:15:22;;;;;;;9.90;5.28;;;19.50;96.40;;;;;;4965044;28;96337;-75
2023/08/17 04:17:47;;;;;;;7.68;5.35;;;19.50;96.40;;;;;;4966300;28;92615;-76
2023/08/17 04:20:13;;;;;;;8.27;5.90;;;19.50;96.50;;;;;;4963927;28;92222;-76
2023/08/17 04:22:39;;;;;;;17.65;5.60;;;19.50;96.50;;;;;;4965144;28;95567;-76
2023/08/17 04:25:05;;;;;;;8.23;5.47;;;19.60;96.40;;;;;;4955288;28;96369;-76
2023/08/17 04:27:30;;;;;;;11.25;5.15;;;19.60;96.30;;;;;;4946172;28;92757;-76
2023/08/17 04:29:57;;;;;;;6.32;4.78;;;19.60;96.50;;;;;;4965004;28;92375;-76
2023/08/17 04:32:22;;;;;;;9.30;5.82;;;19.50;96.50;;;;;;4964279;28;93677;-76
2023/08/17 04:34:48;;;;;;;8.70;6.38;;;19.50;96.30;;;;;;4965048;28;93894;-76
2023/08/17 04:37:14;;;;;;;16.80;8.13;;;19.50;96.30;;;;;;4964668;28;92330;-75
2023/08/17 04:39:40;;;;;;;14.00;7.85;;;19.40;96.10;;;;;;4964795;28;92002;-76
2023/08/17 04:42:06;;;;;;;13.68;7.47;;;19.40;96.50;;;;;;4966552;28;93434;-76
2023/08/17 04:44:32;;;;;;;13.65;7.30;;;19.40;96.40;;;;;;4965117;28;93401;-76
2023/08/17 04:46:58;;;;;;;13.98;7.30;;;19.30;96.60;;;;;;4964644;28;93413;-76
2023/08/17 04:49:23;;;;;;;12.43;7.47;;;19.40;96.50;;;;;;4965550;28;93029;-75
2023/08/17 04:51:49;;;;;;;12.35;8.27;;;19.40;96.50;;;;;;4962970;28;94219;-75
2023/08/17 04:54:14;;;;;;;14.93;7.97;;;19.40;96.40;;;;;;4964595;28;93899;-76
2023/08/17 04:56:40;;;;;;;14.23;7.85;;;19.40;96.40;;;;;;4966452;28;92534;-76
2023/08/17 04:59:06;;;;;;;12.07;7.72;;;19.40;96.40;;;;;;4965098;28;92611;-75
2023/08/17 05:01:32;;;;;;;13.70;7.70;;;19.40;96.40;;;;;;4947740;28;96947;-75
2023/08/17 05:03:57;;;;;;;13.18;7.45;;;19.40;96.40;;;;;;4965673;28;93519;-75
2023/08/17 05:06:23;;;;;;;11.45;6.97;;;19.40;96.10;;;;;;4946587;28;93129;-75
2023/08/17 05:08:49;;;;;;;13.27;6.35;;;19.30;96.10;;;;;;4964395;28;92808;-75
2023/08/17 05:11:14;;;;;;;11.77;7.00;;;19.30;96.30;;;;;;4964291;28;94757;-75
2023/08/17 05:13:40;;;;;;;10.52;7.03;;;19.30;96.20;;;;;;4964481;28;93924;-76
2023/08/17 05:16:06;;;;;;;13.38;6.68;;;19.30;96.40;;;;;;4964332;28;92784;-75
2023/08/17 05:18:31;;;;;;;8.07;6.20;;;19.30;96.30;;;;;;4964508;28;92631;-76
2023/08/17 05:20:57;;;;;;;8.32;6.15;;;19.30;96.40;;;;;;4963773;28;92757;-76
2023/08/17 05:23:22;;;;;;;13.10;5.85;;;19.30;96.40;;;;;;4944610;28;97244;-76
2023/08/17 05:25:48;;;;;;;10.63;5.57;;;19.30;96.30;;;;;;4962254;28;92931;-76
2023/08/17 05:28:14;;;;;;;10.30;5.75;;;19.30;96.30;;;;;;4966341;28;91984;-76
2023/08/17 05:30:40;;;;;;;9.27;5.82;;;19.40;96.30;;;;;;4964099;28;94680;-76
2023/08/17 05:33:05;;;;;;;8.80;5.47;;;19.40;96.20;;;;;;4946336;28;97212;-76
2023/08/17 05:35:32;;;;;;;9.05;4.88;;;19.30;96.10;;;;;;4963918;28;93362;-76
2023/08/17 05:37:57;;;;;;;10.40;5.45;;;19.30;96.20;;;;;;4962534;28;92907;-75
2023/08/17 05:40:23;;;;;;;10.90;4.93;;;19.20;96.10;;;;;;4964042;28;93681;-84
2023/08/17 05:42:49;;;;;;;9.07;4.85;;;19.30;96.20;;;;;;4963975;28;96267;-82
2023/08/17 05:45:15;;;;;;;6.80;4.75;;;19.20;96.20;;;;;;4947326;28;93028;-85
2023/08/17 05:47:40;;;;;;;6.28;4.47;;;19.20;96.40;;;;;;4965859;28;92626;-86
2023/08/17 05:50:06;;;;;;;7.53;4.22;;;19.20;96.20;;;;;;4966289;28;93901;-88
2023/08/17 05:52:32;;;;;;;7.80;4.32;;;19.20;96.20;;;;;;4949557;28;96728;-87
2023/08/17 05:54:58;;;;;;;9.40;5.60;;;19.20;96.20;;;;;;4973247;28;92703;-89
2023/08/17 05:57:24;;;;;;;7.93;4.18;;;19.20;96.10;;;;;;4962239;28;92752;-88
2023/08/17 05:59:49;;;;;;;7.20;4.65;;;19.20;96.00;;;;;;4962016;28;96096;-87
2023/08/17 06:02:15;;;;;;;9.23;5.53;;;19.20;96.20;;;;;;4963309;28;96211;-86
2023/08/17 06:04:41;;;;;;;9.52;5.10;;;19.20;96.00;;;;;;4963330;28;92514;-88
2023/08/17 06:07:06;;;;;;;7.85;4.68;;;19.20;96.00;;;;;;4963214;28;93197;-87
2023/08/17 06:09:32;;;;;;;8.65;5.32;;;19.30;96.00;;;;;;4946136;28;96152;-88
2023/08/17 06:11:58;;;;;;;8.05;5.07;;;19.30;96.00;;;;;;4969941;28;95120;-87
2023/08/17 06:14:24;;;;;;;10.10;4.93;;;19.30;96.10;;;;;;4953287;28;92838;-87
2023/08/17 06:16:49;;;;;;;8.93;5.18;;;19.30;96.10;;;;;;4949159;28;91710;-87
2023/08/17 06:19:15;;;;;;;11.57;4.57;;;19.30;96.10;;;;;;4964767;28;96581;-87
2023/08/17 06:21:41;;;;;;;10.82;5.15;;;19.40;96.20;;;;;;4962508;28;95996;-87
2023/08/17 06:24:07;;;;;;;5.90;3.95;;;19.40;95.80;;;;;;4946497;28;93888;-84
2023/08/17 06:26:32;;;;;;;7.50;4.32;;;19.50;95.90;;;;;;4947681;28;92773;-88
2023/08/17 06:28:58;;;;;;;9.23;3.97;;;19.50;96.00;;;;;;4961849;28;96701;-89
2023/08/17 06:31:27;;;;;;;10.38;5.47;;;19.50;95.90;;;;;;4962530;28;96230;-88
2023/08/17 06:33:56;;;;;;;7.95;4.90;;;19.60;95.60;;;;;;4946313;28;92881;-87
2023/08/17 06:36:22;;;;;;;10.75;4.47;;;19.60;95.50;;;;;;4946331;28;92505;-86
2023/08/17 06:38:48;;;;;;;11.00;5.50;;;19.60;95.50;;;;;;4964618;28;94627;-88
2023/08/17 06:41:13;;;;;;;10.80;5.47;;;19.60;95.40;;;;;;4962575;28;95880;-87
2023/08/17 06:43:39;;;;;;;11.45;6.03;;;19.60;95.30;;;;;;4961945;28;92240;-87
2023/08/17 06:46:05;;;;;;;16.55;5.32;;;19.60;95.30;;;;;;4946951;28;92740;-86
2023/08/17 06:48:31;;;;;;;14.18;6.15;;;19.60;95.20;;;;;;4962988;28;97884;-85
2023/08/17 06:50:57;;;;;;;14.13;6.07;;;19.70;95.10;;;;;;4967996;28;97543;-85
2023/08/17 06:53:22;;;;;;;13.70;4.90;;;19.70;95.20;;;;;;4970181;28;92841;-85
2023/08/17 06:55:48;;;;;;;8.80;5.32;;;19.70;95.30;;;;;;4969510;28;93123;-87
2023/08/17 06:58:14;;;;;;;11.90;5.85;;;19.80;95.30;;;;;;4971222;28;96751;-85
2023/08/17 07:00:40;;;;;;;17.73;7.03;;;19.90;95.20;;;;;;4954246;28;95765;-86
2023/08/17 07:03:06;;;;;;;13.48;7.10;;;20.00;94.80;;;;;;4953633;28;92702;-86
2023/08/17 07:05:32;;;;;;;18.35;7.85;;;20.00;94.60;;;;;;4953044;28;94943;-88
2023/08/17 07:07:59;;;;;;;15.18;7.10;;;20.10;94.80;;;;;;4952754;28;95260;-86
2023/08/17 07:10:25;;;;;;;16.50;7.35;;;20.10;94.80;;;;;;4969255;28;96545;-86
2023/08/17 07:12:51;;;;;;;17.48;7.05;;;20.20;94.60;;;;;;4953073;28;93685;-85
2023/08/17 07:15:17;;;;;;;18.60;9.07;;;20.30;94.50;;;;;;4953827;28;92111;-88
2023/08/17 07:17:42;;;;;;;18.90;9.27;;;20.30;94.40;;;;;;4953628;28;96965;-87
2023/08/17 07:20:09;;;;;;;17.02;8.55;;;20.30;94.30;;;;;;4968236;28;96424;-85
2023/08/17 07:22:35;;;;;;;17.70;8.77;;;20.40;94.50;;;;;;4970014;28;92742;-86
2023/08/17 07:25:01;;;;;;;16.13;10.05;;;20.50;94.20;;;;;;4952840;28;92980;-86
2023/08/17 07:27:27;;;;;;;21.85;10.00;;;20.60;93.90;;;;;;4953624;28;95230;-87
2023/08/17 07:29:52;;;;;;;19.92;10.73;;;20.60;93.70;;;;;;4954071;28;96414;-87
2023/08/17 07:32:18;;;;;;;22.13;11.02;;;20.60;93.70;;;;;;4960310;28;92605;-86
2023/08/17 07:34:44;;;;;;;18.05;9.52;;;20.70;93.70;;;;;;4953177;28;92764;-87
2023/08/17 07:37:10;;;;;;;21.63;10.32;;;20.70;93.40;;;;;;4968305;28;97500;-83
2023/08/17 07:39:36;;;;;;;22.48;11.38;;;20.70;93.40;;;;;;4952823;28;96684;-85
2023/08/17 07:42:02;;;;;;;24.63;12.20;;;20.80;93.50;;;;;;4950697;28;92670;-83
2023/08/17 07:44:28;;;;;;;23.75;10.85;;;20.80;93.50;;;;;;4959045;28;92529;-83
2023/08/17 07:46:54;;;;;;;21.98;10.80;;;20.80;93.60;;;;;;4966767;28;96359;-85
2023/08/17 07:49:20;;;;;;;16.10;8.82;;;20.90;93.40;;;;;;4952125;28;96387;-79
2023/08/17 07:51:45;;;;;;;27.38;12.77;;;21.00;93.60;;;;;;4970513;28;92579;-82
2023/08/17 07:54:11;;;;;;;23.20;11.70;;;21.00;93.70;;;;;;4952452;28;92545;-83
2023/08/17 07:56:37;;;;;;;23.35;12.27;;;21.10;93.00;;;;;;4951761;28;95222;-81
2023/08/17 07:59:03;;;;;;;21.10;12.05;;;21.20;93.00;;;;;;4950362;28;95203;-79
2023/08/17 08:01:28;;;;;;;25.63;13.75;;;21.20;93.00;;;;;;4950807;28;93898;-78
2023/08/17 08:03:54;;;;;;;26.23;14.30;;;21.20;93.00;;;;;;4966891;28;92681;-79
2023/08/17 08:06:20;;;;;;;25.25;14.35;;;21.20;92.90;;;;;;4955791;28;96729;-78
2023/08/17 08:08:46;;;;;;;22.63;12.27;;;21.30;92.90;;;;;;4967598;28;93402;-81
2023/08/17 08:11:12;;;;;;;28.27;14.00;;;21.30;92.80;;;;;;4948820;28;92355;-77
2023/08/17 08:13:37;;;;;;;26.55;14.63;;;21.40;93.00;;;;;;4966802;28;93041;-78
2023/08/17 08:16:03;;;;;;;25.15;13.43;;;21.40;93.00;;;;;;4967643;28;93600;-78
2023/08/17 08:18:29;;;;;;;27.00;14.23;;;21.50;92.90;;;;;;4966400;28;92100;-78
2023/08/17 08:20:54;;;;;;;27.65;13.73;;;21.60;92.90;;;;;;4967472;28;92731;-78
2023/08/17 08:23:20;;;;;;;24.13;13.15;;;21.70;93.00;;;;;;4965935;28;92931;-77
2023/08/17 08:25:46;;;;;;;26.13;14.00;;;21.80;92.60;;;;;;4961416;28;94170;-77
2023/08/17 08:28:11;;;;;;;28.00;16.23;;;21.90;92.50;;;;;;4964286;28;93835;-77
2023/08/17 08:30:37;;;;;;;29.75;14.98;;;22.00;92.40;;;;;;4963994;28;92773;-77
2023/08/17 08:33:03;;;;;;;33.20;17.05;;;22.00;92.40;;;;;;4967829;28;92681;-77
2023/08/17 08:35:29;;;;;;;28.00;15.80;;;22.20;92.50;;;;;;4948193;28;96367;-76
2023/08/17 08:37:55;;;;;;;28.90;15.60;;;22.30;92.00;;;;;;4966340;28;93809;-77
2023/08/17 08:40:27;;;;;;;31.33;17.50;;;22.40;91.80;;;;;;4964765;28;100535;-76
2023/08/17 08:42:52;;;;;;;38.33;18.80;;;22.50;91.50;;;;;;4947683;28;92243;-76
2023/08/17 08:45:18;;;;;;;26.45;15.90;;;22.60;91.20;;;;;;4964219;28;93748;-77
2023/08/17 08:47:45;;;;;;;33.78;16.13;;;22.60;91.30;;;;;;4947585;28;96813;-78
2023/08/17 08:50:16;;;;;;;28.50;16.02;;;22.70;91.10;;;;;;4948975;28;93501;-77
2023/08/17 08:52:52;;;;;;;28.92;15.52;;;22.70;91.10;;;;;;4966123;28;92538;-78
2023/08/17 08:55:19;;;;;;;31.25;16.25;;;22.80;91.00;;;;;;4954964;28;97214;-79
2023/08/17 08:57:46;;;;;;;30.33;16.75;;;23.00;91.00;;;;;;4954969;28;96088;-79
2023/08/17 09:00:12;;;;;;;25.75;15.02;;;23.00;90.60;;;;;;4948511;28;92583;-80
2023/08/17 09:02:38;;;;;;;23.65;14.68;;;23.00;90.50;;;;;;4965936;28;92487;-82
2023/08/17 09:05:06;;;;;;;29.40;14.45;;;23.00;90.50;;;;;;4963334;28;93384;-82
2023/08/17 09:07:34;;;;;;;20.58;12.95;;;23.00;90.50;;;;;;4955025;28;96755;-79
2023/08/17 09:10:00;;;;;;;22.52;12.88;;;23.00;90.50;;;;;;4964966;28;92674;-80
2023/08/17 09:12:25;;;;;;;27.02;13.23;;;23.00;90.50;;;;;;4962493;28;92710;-82
2023/08/17 09:14:51;;;;;;;28.15;13.85;;;23.10;90.40;;;;;;4963089;28;95001;-80
2023/08/17 09:17:25;;;;;;;24.80;12.98;;;23.10;90.50;;;;;;4945375;28;96974;-83
2023/08/17 09:19:50;;;;;;;23.55;13.23;;;23.20;90.50;;;;;;4944485;28;92845;-81
2023/08/17 09:22:40;;;;;;;25.02;12.10;;;23.20;90.30;;;;;;4944582;28;92980;-82
2023/08/17 09:25:07;;;;;;;20.13;12.25;;;23.30;90.20;;;;;;4954542;28;100167;-82
2023/08/17 09:27:33;;;;;;;22.83;12.77;;;23.40;90.10;;;;;;4944783;28;97167;-80
2023/08/17 09:30:09;;;;;;;22.85;13.10;;;23.50;90.10;;;;;;4955763;28;92707;-79
2023/08/17 09:32:35;;;;;;;25.60;12.65;;;23.50;89.50;;;;;;4963734;28;92329;-79
2023/08/17 09:35:03;;;;;;;29.52;13.77;;;23.60;89.20;;;;;;4945633;28;94293;-79
2023/08/17 09:37:29;;;;;;;28.60;13.35;;;23.60;88.90;;;;;;4963804;28;92719;-80
2023/08/17 09:39:55;;;;;;;24.98;11.18;;;23.60;89.10;;;;;;4945250;28;93769;-78
2023/08/17 09:42:22;;;;;;;22.42;13.23;;;23.70;89.80;;;;;;4971755;28;92975;-77
2023/08/17 09:44:49;;;;;;;21.92;14.23;;;23.90;89.40;;;;;;4964467;28;96687;-77
2023/08/17 09:47:17;;;;;;;21.35;14.30;;;24.00;88.80;;;;;;4954234;28;95152;-77
2023/08/17 09:49:54;;;;;;;21.75;12.90;;;24.00;87.80;;;;;;4966652;28;92640;-77
2023/08/17 09:52:21;;;;;;;23.10;13.02;;;24.10;88.40;;;;;;4962718;28;92946;-77
2023/08/17 09:54:47;;;;;;;28.35;15.55;;;24.20;88.60;;;;;;4946493;28;95911;-77
2023/08/17 09:57:14;;;;;;;23.30;12.93;;;24.20;87.30;;;;;;4965510;28;92181;-77
2023/08/17 09:59:40;;;;;;;21.90;13.70;;;24.30;87.90;;;;;;4964739;28;92676;-77
2023/08/17 10:02:21;;;;;;;22.13;13.70;;;24.40;87.80;;;;;;4947787;28;92692;-77
2023/08/17 10:04:52;;;;;;;20.23;14.10;;;24.50;87.80;;;;;;4954529;28;96455;-77
2023/08/17 10:07:29;;;;;;;22.77;15.00;;;24.50;87.00;;;;;;4944910;28;97469;-78
2023/08/17 10:10:05;;;;;;;18.20;12.55;;;24.60;85.90;;;;;;4963096;28;92811;-78
2023/08/17 10:12:48;;;;;;;15.30;11.60;;;24.60;86.70;;;;;;4961435;28;93004;-77
2023/08/17 10:15:17;;;;;;;17.42;12.27;;;24.70;87.20;;;;;;4961456;28;94116;-78
2023/08/17 10:18:14;;;;;;;19.20;13.57;;;24.90;86.50;;;;;;4967114;28;96347;-78
2023/08/17 10:20:45;;;;;;;18.38;13.27;;;25.00;85.90;;;;;;4954091;28;92567;-79
2023/08/17 10:23:17;;;;;;;22.77;14.13;;;25.10;85.60;;;;;;4942506;28;92044;-78
2023/08/17 10:25:43;;;;;;;19.77;12.90;;;25.20;85.10;;;;;;4956691;28;93785;-77
2023/08/17 10:28:10;;;;;;;18.48;12.05;;;25.30;85.20;;;;;;4960367;28;93337;-78
2023/08/17 10:30:39;;;;;;;21.88;13.80;;;25.40;84.70;;;;;;4940648;28;94957;-78
2023/08/17 10:33:06;;;;;;;22.88;14.95;;;25.50;83.80;;;;;;4951948;28;92583;-77
2023/08/17 10:35:33;;;;;;;18.05;12.82;;;25.50;81.90;;;;;;4961901;28;98493;-77
2023/08/17 10:38:00;;;;;;;23.60;14.75;;;25.40;83.10;;;;;;4965482;28;93639;-76
2023/08/17 10:40:34;;;;;;;17.48;13.02;;;25.50;83.60;;;;;;4962996;28;92783;-77
2023/08/17 10:43:00;;;;;;;19.67;14.02;;;25.50;83.10;;;;;;4968631;28;92644;-75
2023/08/17 10:45:28;;;;;;;19.23;12.73;;;25.50;82.50;;;;;;4963203;28;92933;-75
2023/08/17 10:48:26;;;;;;;17.80;13.52;;;25.50;82.60;;;;;;4964828;28;93413;-75
2023/08/17 10:51:00;;;;;;;18.52;13.63;;;25.60;82.90;;;;;;4962161;28;93021;-75
2023/08/17 10:53:26;;;;;;;22.38;14.25;;;25.60;82.20;;;;;;4963589;28;93005;-74
2023/08/17 10:55:57;;;;;;;17.77;13.52;;;25.60;82.70;;;;;;4963594;28;94550;-77
2023/08/17 10:58:23;;;;;;;16.95;13.48;;;25.70;82.30;;;;;;4944831;28;98946;-77
2023/08/17 11:00:56;;;;;;;23.23;14.73;;;25.70;82.60;;;;;;4962336;28;92912;-77
2023/08/17 11:03:22;;;;;;;;;;;25.80;82.70;;;;;;4962575;28;92839;-77
2023/08/17 11:05:56;;;;;;;23.33;16.17;;;25.80;82.40;;;;;;4963640;28;96995;-77
2023/08/17 11:08:27;;;;;;;22.65;15.23;;;25.90;81.60;;;;;;4962951;28;93316;-77
2023/08/17 11:11:05;;;;;;;21.55;14.50;;;25.90;81.60;;;;;;4963962;28;92500;-76
2023/08/17 11:13:35;;;;;;;19.85;14.25;;;25.90;81.40;;;;;;4943962;28;92039;-77
2023/08/17 11:16:02;;;;;;;21.08;14.05;;;25.90;81.80;;;;;;4944662;28;94480;-75
2023/08/17 11:18:28;;;;;;;19.08;14.30;;;26.00;82.00;;;;;;4961190;28;92624;-76
2023/08/17 11:20:54;;;;;;;25.13;18.95;;;26.00;81.90;;;;;;4946547;28;93264;-79
2023/08/17 11:23:20;;;;;;;22.98;15.88;;;26.00;80.70;;;;;;4961249;28;92637;-78
2023/08/17 11:25:46;;;;;;;19.40;14.77;;;26.00;81.70;;;;;;4961153;28;97202;-77
2023/08/17 11:28:15;;;;;;;23.60;16.88;;;26.00;81.90;;;;;;4962495;28;94011;-77
2023/08/17 11:30:42;;;;;;;21.83;16.50;;;26.00;80.90;;;;;;4942649;28;93156;-78
2023/08/17 11:33:08;;;;;;;24.45;18.13;;;26.00;81.30;;;;;;4963619;28;92737;-77
2023/08/17 11:35:34;;;;;;;22.90;17.42;;;26.00;81.40;;;;;;4962377;28;94040;-77
2023/08/17 11:38:00;;;;;;;21.52;16.83;;;26.10;80.50;;;;;;4966676;28;93427;-78
2023/08/17 11:40:28;;;;;;;22.73;16.20;;;26.00;80.90;;;;;;4955757;28;92784;-78
2023/08/17 11:42:53;;;;;;;21.15;16.23;;;26.00;81.20;;;;;;4947214;28;92968;-77
2023/08/17 11:45:19;;;;;;;25.30;15.77;;;26.10;81.10;;;;;;4947008;28;97522;-78
2023/08/17 11:47:47;;;;;;;22.20;17.20;;;26.10;81.00;;;;;;4967223;28;93888;-77
2023/08/17 11:50:14;;;;;;;21.85;16.33;;;26.10;80.90;;;;;;4964783;28;93312;-77
2023/08/17 11:52:40;;;;;;;19.95;15.65;;;26.00;81.10;;;;;;4965143;28;92765;-77
2023/08/17 11:55:09;;;;;;;20.38;14.25;;;26.00;81.10;;;;;;4964217;28;94192;-77
2023/08/17 11:57:36;;;;;;;17.80;14.30;;;25.90;81.60;;;;;;4963624;28;96528;-77
2023/08/17 12:00:03;;;;;;;22.33;18.10;;;25.90;81.60;;;;;;4947446;28;93108;-77
2023/08/17 12:02:30;;;;;;;25.58;15.73;;;25.90;80.80;;;;;;4946454;28;91974;-77
2023/08/17 12:04:56;;;;;;;20.60;15.32;;;25.90;81.00;;;;;;4964499;28;93627;-77
2023/08/17 12:07:25;;;;;;;19.73;15.82;;;25.90;81.30;;;;;;4964058;28;92934;-77
2023/08/17 12:09:52;;;;;;;18.15;14.18;;;25.80;81.10;;;;;;4962431;28;93697;-77
2023/08/17 12:12:19;;;;;;;24.30;16.70;;;25.70;81.30;;;;;;4965129;28;92118;-77
2023/08/17 12:14:49;;;;;;;18.42;14.05;;;25.70;81.20;;;;;;4964611;28;93489;-78
2023/08/17 12:17:19;;;;;;;19.80;14.13;;;25.70;81.50;;;;;;4969968;28;95501;-76
2023/08/17 12:19:50;;;;;;;18.80;14.57;;;25.70;81.80;;;;;;4962716;28;92998;-76
2023/08/17 12:22:17;;;;;;;20.70;14.77;;;25.70;81.50;;;;;;4962961;28;92512;-77
2023/08/17 12:24:43;;;;;;;21.42;15.52;;;25.70;81.60;;;;;;4946548;28;95621;-76
2023/08/17 12:27:11;;;;;;;19.40;14.07;;;25.70;80.90;;;;;;4946928;28;95042;-76
2023/08/17 12:29:48;;;;;;;24.90;15.25;;;25.70;81.90;;;;;;4962829;28;93419;-76
2023/08/17 12:32:15;;;;;;;19.25;14.38;;;25.60;81.30;;;;;;4964326;28;92832;-76
2023/08/17 12:34:42;;;;;;;22.48;15.75;;;25.60;82.20;;;;;;4964915;28;93807;-77
2023/08/17 12:37:12;;;;;;;24.98;18.65;;;25.60;82.20;;;;;;4948549;28;97463;-77